Plymouth, Pennsylvania
Current Conditions -  °F | °C
As of 8:54 AM on Thursday 23 Oct 2014 (Local Time) from KAVP Reporting Station
Light Rain Light Rain  
Wind Chill:   Ceiling: 1300
Heat Index:   Visibility: 9mi
Dew Point:   Wind: 8mph
Humidity: 79%   Direction: 360°N
Pressure: 29.87"   Gusts: NA
Location:  41.24°N, 75.96°W
Report Text: KAVP 231254Z AUTO 36007KT 9SM -RA OVC013 08/04 A2987 RMK AO2 SLP116 P0006 T00780044
Loading
Personal Weather Stations






























Interactive Weather Map
Tropical Storm Tracking
New forecast layout! Learn more

10-Day Weather Forecast

Advertisements
Track Severe Weather on mobile